sensor_id;sensor_type;location;lat;lon;timestamp;temperature;humidity
41344;DHT22;27089;50.022;7.604;2024-03-02T00:01:36;4.60;99.90
41344;DHT22;27089;50.022;7.604;2024-03-02T00:04:04;4.60;99.90
41344;DHT22;27089;50.022;7.604;2024-03-02T00:06:32;4.50;99.90
41344;DHT22;27089;50.022;7.604;2024-03-02T00:08:59;4.50;99.90
41344;DHT22;27089;50.022;7.604;2024-03-02T00:11:27;4.50;99.90
41344;DHT22;27089;50.022;7.604;2024-03-02T00:13:54;4.50;99.90
41344;DHT22;27089;50.022;7.604;2024-03-02T00:16:23;4.60;99.90
41344;DHT22;27089;50.022;7.604;2024-03-02T00:18:50;4.70;99.90
41344;DHT22;27089;50.022;7.604;2024-03-02T00:21:18;4.70;99.90
41344;DHT22;27089;50.022;7.604;2024-03-02T00:23:48;4.80;99.90
41344;DHT22;27089;50.022;7.604;2024-03-02T00:26:17;4.80;99.90
41344;DHT22;27089;50.022;7.604;2024-03-02T00:28:44;4.80;99.90
41344;DHT22;27089;50.022;7.604;2024-03-02T00:31:12;4.80;99.90
41344;DHT22;27089;50.022;7.604;2024-03-02T00:33:42;4.70;99.90
41344;DHT22;27089;50.022;7.604;2024-03-02T00:36:10;4.80;99.90
41344;DHT22;27089;50.022;7.604;2024-03-02T00:38:44;4.80;99.90
41344;DHT22;27089;50.022;7.604;2024-03-02T00:41:17;4.90;99.90
41344;DHT22;27089;50.022;7.604;2024-03-02T00:43:48;5.00;99.90
41344;DHT22;27089;50.022;7.604;2024-03-02T00:46:18;5.10;99.90
41344;DHT22;27089;50.022;7.604;2024-03-02T00:48:57;5.20;99.90
41344;DHT22;27089;50.022;7.604;2024-03-02T00:51:25;5.10;99.90
41344;DHT22;27089;50.022;7.604;2024-03-02T00:53:54;5.10;99.90
41344;DHT22;27089;50.022;7.604;2024-03-02T00:56:22;4.90;99.90
41344;DHT22;27089;50.022;7.604;2024-03-02T00:58:50;4.90;99.90
41344;DHT22;27089;50.022;7.604;2024-03-02T01:01:17;4.70;99.90
41344;DHT22;27089;50.022;7.604;2024-03-02T01:03:45;4.70;99.90
41344;DHT22;27089;50.022;7.604;2024-03-02T01:06:13;4.60;99.90
41344;DHT22;27089;50.022;7.604;2024-03-02T01:08:40;4.60;99.90
41344;DHT22;27089;50.022;7.604;2024-03-02T01:11:08;4.60;99.90
41344;DHT22;27089;50.022;7.604;2024-03-02T01:13:35;4.60;99.90
41344;DHT22;27089;50.022;7.604;2024-03-02T01:16:02;4.60;99.90
41344;DHT22;27089;50.022;7.604;2024-03-02T01:18:30;4.50;99.90
41344;DHT22;27089;50.022;7.604;2024-03-02T01:20:57;4.40;99.90
41344;DHT22;27089;50.022;7.604;2024-03-02T01:23:26;4.40;99.90
41344;DHT22;27089;50.022;7.604;2024-03-02T01:25:53;4.30;99.90
41344;DHT22;27089;50.022;7.604;2024-03-02T01:28:20;4.30;99.90
41344;DHT22;27089;50.022;7.604;2024-03-02T01:30:48;4.40;99.90
41344;DHT22;27089;50.022;7.604;2024-03-02T01:33:15;4.40;99.90
41344;DHT22;27089;50.022;7.604;2024-03-02T01:35:42;4.40;99.90
41344;DHT22;27089;50.022;7.604;2024-03-02T01:38:09;4.40;99.90
41344;DHT22;27089;50.022;7.604;2024-03-02T01:40:37;4.30;99.90
41344;DHT22;27089;50.022;7.604;2024-03-02T01:43:05;4.30;99.90
41344;DHT22;27089;50.022;7.604;2024-03-02T01:45:33;4.40;99.90
41344;DHT22;27089;50.022;7.604;2024-03-02T01:48:01;4.40;99.90
41344;DHT22;27089;50.022;7.604;2024-03-02T01:50:29;4.40;99.90
41344;DHT22;27089;50.022;7.604;2024-03-02T01:52:56;4.40;99.90
41344;DHT22;27089;50.022;7.604;2024-03-02T01:55:23;4.50;99.90
41344;DHT22;27089;50.022;7.604;2024-03-02T01:57:52;4.40;99.90
41344;DHT22;27089;50.022;7.604;2024-03-02T02:00:20;4.50;99.90
41344;DHT22;27089;50.022;7.604;2024-03-02T02:02:48;4.50;99.90
41344;DHT22;27089;50.022;7.604;2024-03-02T02:05:15;4.40;99.90
41344;DHT22;27089;50.022;7.604;2024-03-02T02:07:42;4.40;99.90
41344;DHT22;27089;50.022;7.604;2024-03-02T02:10:10;4.30;99.90
41344;DHT22;27089;50.022;7.604;2024-03-02T02:12:37;4.30;99.90
41344;DHT22;27089;50.022;7.604;2024-03-02T02:15:24;4.30;99.90
41344;DHT22;27089;50.022;7.604;2024-03-02T02:17:51;4.20;99.90
41344;DHT22;27089;50.022;7.604;2024-03-02T02:20:18;4.20;99.90
41344;DHT22;27089;50.022;7.604;2024-03-02T02:22:57;4.20;99.90
41344;DHT22;27089;50.022;7.604;2024-03-02T02:25:24;4.20;99.90
41344;DHT22;27089;50.022;7.604;2024-03-02T02:27:52;4.10;99.90
41344;DHT22;27089;50.022;7.604;2024-03-02T02:30:20;4.10;99.90
41344;DHT22;27089;50.022;7.604;2024-03-02T02:32:47;4.10;99.90
41344;DHT22;27089;50.022;7.604;2024-03-02T02:35:14;4.10;99.90
41344;DHT22;27089;50.022;7.604;2024-03-02T02:37:41;4.00;99.90
41344;DHT22;27089;50.022;7.604;2024-03-02T02:40:11;4.00;99.90
41344;DHT22;27089;50.022;7.604;2024-03-02T02:42:38;4.10;99.90
41344;DHT22;27089;50.022;7.604;2024-03-02T02:45:06;4.10;99.90
41344;DHT22;27089;50.022;7.604;2024-03-02T02:47:33;4.20;99.90
41344;DHT22;27089;50.022;7.604;2024-03-02T02:50:01;4.30;99.90
41344;DHT22;27089;50.022;7.604;2024-03-02T02:52:31;4.30;99.90
41344;DHT22;27089;50.022;7.604;2024-03-02T02:55:01;4.30;99.90
41344;DHT22;27089;50.022;7.604;2024-03-02T02:57:30;4.30;99.90
41344;DHT22;27089;50.022;7.604;2024-03-02T03:00:01;4.30;99.90
41344;DHT22;27089;50.022;7.604;2024-03-02T03:02:31;4.30;99.90
41344;DHT22;27089;50.022;7.604;2024-03-02T03:04:58;4.40;99.90
41344;DHT22;27089;50.022;7.604;2024-03-02T03:07:25;4.30;99.90
41344;DHT22;27089;50.022;7.604;2024-03-02T03:09:51;4.30;99.90
41344;DHT22;27089;50.022;7.604;2024-03-02T03:12:18;4.30;99.90
41344;DHT22;27089;50.022;7.604;2024-03-02T03:14:47;4.30;99.90
41344;DHT22;27089;50.022;7.604;2024-03-02T03:17:14;4.30;99.90
41344;DHT22;27089;50.022;7.604;2024-03-02T03:19:41;4.30;99.90
41344;DHT22;27089;50.022;7.604;2024-03-02T03:22:08;4.30;99.90
41344;DHT22;27089;50.022;7.604;2024-03-02T03:24:35;4.30;99.90
41344;DHT22;27089;50.022;7.604;2024-03-02T03:27:02;4.40;99.90
41344;DHT22;27089;50.022;7.604;2024-03-02T03:29:29;4.30;99.90
41344;DHT22;27089;50.022;7.604;2024-03-02T03:31:57;4.30;99.90
41344;DHT22;27089;50.022;7.604;2024-03-02T03:34:24;4.30;99.90
41344;DHT22;27089;50.022;7.604;2024-03-02T03:36:52;4.20;99.90
41344;DHT22;27089;50.022;7.604;2024-03-02T03:39:19;4.20;99.90
41344;DHT22;27089;50.022;7.604;2024-03-02T03:41:46;4.20;99.90
41344;DHT22;27089;50.022;7.604;2024-03-02T03:44:13;4.10;99.90
41344;DHT22;27089;50.022;7.604;2024-03-02T03:46:40;4.10;99.90
41344;DHT22;27089;50.022;7.604;2024-03-02T03:49:09;4.10;99.90
41344;DHT22;27089;50.022;7.604;2024-03-02T03:51:36;4.00;99.90
41344;DHT22;27089;50.022;7.604;2024-03-02T03:54:03;4.00;99.90
41344;DHT22;27089;50.022;7.604;2024-03-02T03:56:30;4.00;99.90
41344;DHT22;27089;50.022;7.604;2024-03-02T03:58:57;3.90;99.90
41344;DHT22;27089;50.022;7.604;2024-03-02T04:01:25;4.00;99.90
41344;DHT22;27089;50.022;7.604;2024-03-02T04:03:52;4.10;99.90
41344;DHT22;27089;50.022;7.604;2024-03-02T04:06:20;4.20;99.90
41344;DHT22;27089;50.022;7.604;2024-03-02T04:08:47;4.20;99.90
41344;DHT22;27089;50.022;7.604;2024-03-02T04:11:14;4.30;99.90
41344;DHT22;27089;50.022;7.604;2024-03-02T04:13:41;4.40;99.90
41344;DHT22;27089;50.022;7.604;2024-03-02T04:16:08;4.50;99.90
41344;DHT22;27089;50.022;7.604;2024-03-02T04:18:35;4.50;99.90
41344;DHT22;27089;50.022;7.604;2024-03-02T04:21:04;4.60;99.90
41344;DHT22;27089;50.022;7.604;2024-03-02T04:23:32;4.70;99.90
41344;DHT22;27089;50.022;7.604;2024-03-02T04:25:59;4.70;99.90
41344;DHT22;27089;50.022;7.604;2024-03-02T04:28:26;4.80;99.90
41344;DHT22;27089;50.022;7.604;2024-03-02T04:30:53;4.90;99.90
41344;DHT22;27089;50.022;7.604;2024-03-02T04:33:20;5.10;99.90
41344;DHT22;27089;50.022;7.604;2024-03-02T04:35:47;5.20;99.90
41344;DHT22;27089;50.022;7.604;2024-03-02T04:38:14;5.20;99.90
41344;DHT22;27089;50.022;7.604;2024-03-02T04:40:43;5.20;99.90
41344;DHT22;27089;50.022;7.604;2024-03-02T04:43:10;5.30;99.90
41344;DHT22;27089;50.022;7.604;2024-03-02T04:45:40;5.30;99.90
41344;DHT22;27089;50.022;7.604;2024-03-02T04:48:08;5.40;99.90
41344;DHT22;27089;50.022;7.604;2024-03-02T04:50:35;5.40;99.90
41344;DHT22;27089;50.022;7.604;2024-03-02T04:53:02;5.50;99.90
41344;DHT22;27089;50.022;7.604;2024-03-02T04:55:29;5.50;99.90
41344;DHT22;27089;50.022;7.604;2024-03-02T04:58:23;5.50;99.90
41344;DHT22;27089;50.022;7.604;2024-03-02T05:00:50;5.60;99.90
41344;DHT22;27089;50.022;7.604;2024-03-02T05:03:17;5.60;99.90
41344;DHT22;27089;50.022;7.604;2024-03-02T05:05:44;5.60;99.90
41344;DHT22;27089;50.022;7.604;2024-03-02T05:08:11;5.50;99.90
41344;DHT22;27089;50.022;7.604;2024-03-02T05:10:38;5.50;99.90
41344;DHT22;27089;50.022;7.604;2024-03-02T05:13:06;5.50;99.90
41344;DHT22;27089;50.022;7.604;2024-03-02T05:15:34;5.50;99.90
41344;DHT22;27089;50.022;7.604;2024-03-02T05:18:01;5.50;99.90
41344;DHT22;27089;50.022;7.604;2024-03-02T05:20:30;5.40;99.90
41344;DHT22;27089;50.022;7.604;2024-03-02T05:22:57;5.40;99.90
41344;DHT22;27089;50.022;7.604;2024-03-02T05:25:24;5.40;99.90
41344;DHT22;27089;50.022;7.604;2024-03-02T05:27:51;5.30;99.90
41344;DHT22;27089;50.022;7.604;2024-03-02T05:30:18;5.20;99.90
41344;DHT22;27089;50.022;7.604;2024-03-02T05:32:47;5.10;99.90
41344;DHT22;27089;50.022;7.604;2024-03-02T05:35:14;5.10;99.90
41344;DHT22;27089;50.022;7.604;2024-03-02T05:37:41;5.00;99.90
41344;DHT22;27089;50.022;7.604;2024-03-02T05:40:09;4.90;99.90
41344;DHT22;27089;50.022;7.604;2024-03-02T05:42:36;4.90;99.90
41344;DHT22;27089;50.022;7.604;2024-03-02T05:45:05;4.80;99.90
41344;DHT22;27089;50.022;7.604;2024-03-02T05:47:32;4.80;99.90
41344;DHT22;27089;50.022;7.604;2024-03-02T05:50:01;4.70;99.90
41344;DHT22;27089;50.022;7.604;2024-03-02T05:52:29;4.70;99.90
41344;DHT22;27089;50.022;7.604;2024-03-02T05:54:56;4.60;99.90
41344;DHT22;27089;50.022;7.604;2024-03-02T05:57:23;4.60;99.90
41344;DHT22;27089;50.022;7.604;2024-03-02T06:00:05;4.70;99.90
41344;DHT22;27089;50.022;7.604;2024-03-02T06:02:33;4.70;99.90
41344;DHT22;27089;50.022;7.604;2024-03-02T06:05:02;4.80;99.90
41344;DHT22;27089;50.022;7.604;2024-03-02T06:07:30;4.90;99.90
41344;DHT22;27089;50.022;7.604;2024-03-02T06:09:57;4.90;99.90
41344;DHT22;27089;50.022;7.604;2024-03-02T06:12:24;5.00;99.90
41344;DHT22;27089;50.022;7.604;2024-03-02T06:14:51;5.10;99.90
41344;DHT22;27089;50.022;7.604;2024-03-02T06:17:18;5.10;99.90
41344;DHT22;27089;50.022;7.604;2024-03-02T06:19:45;5.10;99.90
41344;DHT22;27089;50.022;7.604;2024-03-02T06:22:14;5.10;99.90
41344;DHT22;27089;50.022;7.604;2024-03-02T06:24:41;5.20;99.90
41344;DHT22;27089;50.022;7.604;2024-03-02T06:27:08;5.20;99.90
41344;DHT22;27089;50.022;7.604;2024-03-02T06:29:35;5.20;99.90
41344;DHT22;27089;50.022;7.604;2024-03-02T06:32:03;5.20;99.90
41344;DHT22;27089;50.022;7.604;2024-03-02T06:34:30;5.20;99.90
41344;DHT22;27089;50.022;7.604;2024-03-02T06:36:57;5.30;99.90
41344;DHT22;27089;50.022;7.604;2024-03-02T06:39:25;5.30;99.90
41344;DHT22;27089;50.022;7.604;2024-03-02T06:41:52;5.40;99.90
41344;DHT22;27089;50.022;7.604;2024-03-02T06:44:19;5.50;99.90
41344;DHT22;27089;50.022;7.604;2024-03-02T06:46:47;5.50;99.90
41344;DHT22;27089;50.022;7.604;2024-03-02T06:49:14;5.60;99.90
41344;DHT22;27089;50.022;7.604;2024-03-02T06:51:43;5.60;99.90
41344;DHT22;27089;50.022;7.604;2024-03-02T06:54:10;5.60;99.90
41344;DHT22;27089;50.022;7.604;2024-03-02T06:56:38;5.70;99.90
41344;DHT22;27089;50.022;7.604;2024-03-02T06:59:05;5.70;99.90
41344;DHT22;27089;50.022;7.604;2024-03-02T07:01:33;5.70;99.90
41344;DHT22;27089;50.022;7.604;2024-03-02T07:04:00;5.80;99.90
41344;DHT22;27089;50.022;7.604;2024-03-02T07:06:27;5.90;99.90
41344;DHT22;27089;50.022;7.604;2024-03-02T07:08:54;6.00;99.90
41344;DHT22;27089;50.022;7.604;2024-03-02T07:11:21;6.00;99.90
41344;DHT22;27089;50.022;7.604;2024-03-02T07:13:50;6.10;99.90
41344;DHT22;27089;50.022;7.604;2024-03-02T07:16:17;6.20;99.90
41344;DHT22;27089;50.022;7.604;2024-03-02T07:18:54;6.30;99.90
41344;DHT22;27089;50.022;7.604;2024-03-02T07:21:22;6.40;99.90
41344;DHT22;27089;50.022;7.604;2024-03-02T07:23:50;6.50;99.90
41344;DHT22;27089;50.022;7.604;2024-03-02T07:26:18;6.80;99.90
41344;DHT22;27089;50.022;7.604;2024-03-02T07:28:46;6.90;99.90
41344;DHT22;27089;50.022;7.604;2024-03-02T07:31:15;7.20;99.90
41344;DHT22;27089;50.022;7.604;2024-03-02T07:33:44;7.70;99.90
41344;DHT22;27089;50.022;7.604;2024-03-02T07:36:12;8.00;99.90
41344;DHT22;27089;50.022;7.604;2024-03-02T07:38:39;8.20;99.90
41344;DHT22;27089;50.022;7.604;2024-03-02T07:41:06;8.20;99.90
41344;DHT22;27089;50.022;7.604;2024-03-02T07:43:34;8.20;99.90
41344;DHT22;27089;50.022;7.604;2024-03-02T07:46:01;8.20;99.90
41344;DHT22;27089;50.022;7.604;2024-03-02T07:48:30;8.20;99.90
41344;DHT22;27089;50.022;7.604;2024-03-02T07:50:57;8.20;99.90
41344;DHT22;27089;50.022;7.604;2024-03-02T07:53:24;8.10;99.90
41344;DHT22;27089;50.022;7.604;2024-03-02T07:55:51;8.10;99.90
41344;DHT22;27089;50.022;7.604;2024-03-02T07:58:19;8.20;99.90
41344;DHT22;27089;50.022;7.604;2024-03-02T08:00:46;8.30;99.90
41344;DHT22;27089;50.022;7.604;2024-03-02T08:03:13;8.30;99.90
41344;DHT22;27089;50.022;7.604;2024-03-02T08:05:44;8.40;99.90
41344;DHT22;27089;50.022;7.604;2024-03-02T08:08:11;8.70;99.90
41344;DHT22;27089;50.022;7.604;2024-03-02T08:10:38;8.90;99.90
41344;DHT22;27089;50.022;7.604;2024-03-02T08:13:05;8.90;99.90
41344;DHT22;27089;50.022;7.604;2024-03-02T08:15:32;8.90;99.90
41344;DHT22;27089;50.022;7.604;2024-03-02T08:17:59;9.20;99.90
41344;DHT22;27089;50.022;7.604;2024-03-02T08:20:26;9.30;99.90
41344;DHT22;27089;50.022;7.604;2024-03-02T08:22:55;9.90;99.90
41344;DHT22;27089;50.022;7.604;2024-03-02T08:25:22;10.00;99.90
41344;DHT22;27089;50.022;7.604;2024-03-02T08:27:49;9.80;99.90
41344;DHT22;27089;50.022;7.604;2024-03-02T08:30:16;9.70;99.90
41344;DHT22;27089;50.022;7.604;2024-03-02T08:32:43;9.70;99.90
41344;DHT22;27089;50.022;7.604;2024-03-02T08:35:10;9.30;99.90
41344;DHT22;27089;50.022;7.604;2024-03-02T08:37:39;9.20;99.90
41344;DHT22;27089;50.022;7.604;2024-03-02T08:40:09;9.30;99.90
41344;DHT22;27089;50.022;7.604;2024-03-02T08:42:37;9.50;99.90
41344;DHT22;27089;50.022;7.604;2024-03-02T08:45:04;9.60;99.90
41344;DHT22;27089;50.022;7.604;2024-03-02T08:47:32;9.60;99.90
41344;DHT22;27089;50.022;7.604;2024-03-02T08:49:59;9.60;99.90
41344;DHT22;27089;50.022;7.604;2024-03-02T08:52:26;9.60;99.90
41344;DHT22;27089;50.022;7.604;2024-03-02T08:54:53;9.60;99.90
41344;DHT22;27089;50.022;7.604;2024-03-02T08:57:22;9.80;99.90
41344;DHT22;27089;50.022;7.604;2024-03-02T08:59:49;9.80;99.90
41344;DHT22;27089;50.022;7.604;2024-03-02T09:02:16;10.60;99.90
41344;DHT22;27089;50.022;7.604;2024-03-02T09:04:43;12.20;99.90
41344;DHT22;27089;50.022;7.604;2024-03-02T09:07:10;11.60;99.90
41344;DHT22;27089;50.022;7.604;2024-03-02T09:09:37;11.10;99.90
41344;DHT22;27089;50.022;7.604;2024-03-02T09:12:08;11.80;99.90
41344;DHT22;27089;50.022;7.604;2024-03-02T09:14:36;12.60;99.90
41344;DHT22;27089;50.022;7.604;2024-03-02T09:17:04;13.70;99.90
41344;DHT22;27089;50.022;7.604;2024-03-02T09:19:31;14.60;99.90
41344;DHT22;27089;50.022;7.604;2024-03-02T09:21:58;13.90;99.90
41344;DHT22;27089;50.022;7.604;2024-03-02T09:24:25;13.90;99.90
41344;DHT22;27089;50.022;7.604;2024-03-02T09:26:52;13.10;99.90
41344;DHT22;27089;50.022;7.604;2024-03-02T09:29:19;13.40;99.90
41344;DHT22;27089;50.022;7.604;2024-03-02T09:31:48;13.90;99.90
41344;DHT22;27089;50.022;7.604;2024-03-02T09:34:17;13.40;99.90
41344;DHT22;27089;50.022;7.604;2024-03-02T09:36:44;12.90;99.90
41344;DHT22;27089;50.022;7.604;2024-03-02T09:39:11;12.30;99.90
41344;DHT22;27089;50.022;7.604;2024-03-02T09:41:38;11.70;99.90
41344;DHT22;27089;50.022;7.604;2024-03-02T09:44:06;11.20;99.90
41344;DHT22;27089;50.022;7.604;2024-03-02T09:46:34;10.90;99.90
41344;DHT22;27089;50.022;7.604;2024-03-02T09:49:03;10.80;99.90
41344;DHT22;27089;50.022;7.604;2024-03-02T09:51:31;10.80;99.90
41344;DHT22;27089;50.022;7.604;2024-03-02T09:54:01;10.80;99.90
41344;DHT22;27089;50.022;7.604;2024-03-02T09:56:28;10.70;99.90
41344;DHT22;27089;50.022;7.604;2024-03-02T09:58:55;10.70;99.90
41344;DHT22;27089;50.022;7.604;2024-03-02T10:01:22;10.60;99.90
41344;DHT22;27089;50.022;7.604;2024-03-02T10:03:49;10.50;99.90
41344;DHT22;27089;50.022;7.604;2024-03-02T10:06:22;10.60;99.90
41344;DHT22;27089;50.022;7.604;2024-03-02T10:08:49;10.70;99.90
41344;DHT22;27089;50.022;7.604;2024-03-02T10:11:27;10.70;99.90
41344;DHT22;27089;50.022;7.604;2024-03-02T10:14:04;10.70;99.90
41344;DHT22;27089;50.022;7.604;2024-03-02T10:16:34;10.80;99.90
41344;DHT22;27089;50.022;7.604;2024-03-02T10:19:16;11.00;99.90
41344;DHT22;27089;50.022;7.604;2024-03-02T10:21:45;11.10;99.90
41344;DHT22;27089;50.022;7.604;2024-03-02T10:24:12;11.20;99.90
41344;DHT22;27089;50.022;7.604;2024-03-02T10:26:39;11.30;99.90
41344;DHT22;27089;50.022;7.604;2024-03-02T10:29:08;11.50;99.90
41344;DHT22;27089;50.022;7.604;2024-03-02T10:31:37;11.50;99.90
41344;DHT22;27089;50.022;7.604;2024-03-02T10:34:04;11.50;99.90
41344;DHT22;27089;50.022;7.604;2024-03-02T10:36:32;11.40;99.90
41344;DHT22;27089;50.022;7.604;2024-03-02T10:39:03;11.20;99.90
41344;DHT22;27089;50.022;7.604;2024-03-02T10:41:33;10.90;99.90
41344;DHT22;27089;50.022;7.604;2024-03-02T10:44:02;10.50;99.90
41344;DHT22;27089;50.022;7.604;2024-03-02T10:46:30;10.40;99.90
41344;DHT22;27089;50.022;7.604;2024-03-02T10:49:00;10.30;99.90
41344;DHT22;27089;50.022;7.604;2024-03-02T10:51:28;10.40;99.90
41344;DHT22;27089;50.022;7.604;2024-03-02T10:53:57;10.70;99.90
41344;DHT22;27089;50.022;7.604;2024-03-02T10:56:29;11.10;99.90
41344;DHT22;27089;50.022;7.604;2024-03-02T10:59:02;11.30;99.90
41344;DHT22;27089;50.022;7.604;2024-03-02T11:01:32;11.50;99.90
41344;DHT22;27089;50.022;7.604;2024-03-02T11:04:02;11.70;99.90
41344;DHT22;27089;50.022;7.604;2024-03-02T11:06:31;11.60;99.90
41344;DHT22;27089;50.022;7.604;2024-03-02T11:09:04;11.70;99.90
41344;DHT22;27089;50.022;7.604;2024-03-02T11:11:40;11.50;99.90
41344;DHT22;27089;50.022;7.604;2024-03-02T11:14:13;11.20;99.90
41344;DHT22;27089;50.022;7.604;2024-03-02T11:16:40;11.20;99.90
41344;DHT22;27089;50.022;7.604;2024-03-02T11:19:10;11.30;99.90
41344;DHT22;27089;50.022;7.604;2024-03-02T11:21:38;11.70;99.90
41344;DHT22;27089;50.022;7.604;2024-03-02T11:24:30;11.80;99.90
41344;DHT22;27089;50.022;7.604;2024-03-02T11:27:04;11.90;99.90
41344;DHT22;27089;50.022;7.604;2024-03-02T11:29:46;11.60;99.90
41344;DHT22;27089;50.022;7.604;2024-03-02T11:32:20;11.80;99.90
41344;DHT22;27089;50.022;7.604;2024-03-02T11:34:49;11.60;99.90
41344;DHT22;27089;50.022;7.604;2024-03-02T11:37:17;11.50;99.90
41344;DHT22;27089;50.022;7.604;2024-03-02T11:39:45;11.30;99.90
41344;DHT22;27089;50.022;7.604;2024-03-02T11:42:14;11.20;99.90
41344;DHT22;27089;50.022;7.604;2024-03-02T11:44:43;11.00;99.90
41344;DHT22;27089;50.022;7.604;2024-03-02T11:47:15;11.00;99.90
41344;DHT22;27089;50.022;7.604;2024-03-02T11:49:44;10.90;99.90
41344;DHT22;27089;50.022;7.604;2024-03-02T11:52:13;10.80;99.90
41344;DHT22;27089;50.022;7.604;2024-03-02T11:54:42;10.70;99.90
41344;DHT22;27089;50.022;7.604;2024-03-02T11:57:14;10.90;99.90
41344;DHT22;27089;50.022;7.604;2024-03-02T11:59:41;10.80;99.90
41344;DHT22;27089;50.022;7.604;2024-03-02T12:02:14;10.70;99.90
41344;DHT22;27089;50.022;7.604;2024-03-02T12:04:42;10.50;99.90
41344;DHT22;27089;50.022;7.604;2024-03-02T12:07:11;10.40;99.90
41344;DHT22;27089;50.022;7.604;2024-03-02T12:09:39;10.50;99.90
41344;DHT22;27089;50.022;7.604;2024-03-02T12:12:08;10.60;99.90
41344;DHT22;27089;50.022;7.604;2024-03-02T12:14:38;10.40;99.90
41344;DHT22;27089;50.022;7.604;2024-03-02T12:17:05;10.60;99.90
41344;DHT22;27089;50.022;7.604;2024-03-02T12:19:33;10.80;99.90
41344;DHT22;27089;50.022;7.604;2024-03-02T12:22:00;11.00;99.90
41344;DHT22;27089;50.022;7.604;2024-03-02T12:24:29;11.10;99.90
41344;DHT22;27089;50.022;7.604;2024-03-02T12:26:56;11.00;99.90
41344;DHT22;27089;50.022;7.604;2024-03-02T12:29:24;11.00;99.90
41344;DHT22;27089;50.022;7.604;2024-03-02T12:31:52;10.90;99.90
41344;DHT22;27089;50.022;7.604;2024-03-02T12:34:19;11.10;99.90
41344;DHT22;27089;50.022;7.604;2024-03-02T12:36:49;11.00;99.90
41344;DHT22;27089;50.022;7.604;2024-03-02T12:39:18;11.00;99.90
41344;DHT22;27089;50.022;7.604;2024-03-02T12:41:46;11.20;99.90
41344;DHT22;27089;50.022;7.604;2024-03-02T12:44:16;11.20;99.90
41344;DHT22;27089;50.022;7.604;2024-03-02T12:46:43;11.20;99.90
41344;DHT22;27089;50.022;7.604;2024-03-02T12:49:12;11.30;99.90
41344;DHT22;27089;50.022;7.604;2024-03-02T12:51:42;11.30;99.90
41344;DHT22;27089;50.022;7.604;2024-03-02T12:54:11;11.40;99.90
41344;DHT22;27089;50.022;7.604;2024-03-02T12:56:38;11.30;99.90
41344;DHT22;27089;50.022;7.604;2024-03-02T12:59:05;11.40;99.90
41344;DHT22;27089;50.022;7.604;2024-03-02T13:01:32;11.30;99.90
41344;DHT22;27089;50.022;7.604;2024-03-02T13:03:59;11.50;99.90
41344;DHT22;27089;50.022;7.604;2024-03-02T13:06:27;11.40;99.90
41344;DHT22;27089;50.022;7.604;2024-03-02T13:08:55;11.40;99.90
41344;DHT22;27089;50.022;7.604;2024-03-02T13:11:22;11.70;99.90
41344;DHT22;27089;50.022;7.604;2024-03-02T13:13:50;11.70;99.90
41344;DHT22;27089;50.022;7.604;2024-03-02T13:16:18;11.80;99.90
41344;DHT22;27089;50.022;7.604;2024-03-02T13:18:46;12.00;99.90
41344;DHT22;27089;50.022;7.604;2024-03-02T13:21:13;12.00;99.90
41344;DHT22;27089;50.022;7.604;2024-03-02T13:23:41;12.20;99.90
41344;DHT22;27089;50.022;7.604;2024-03-02T13:26:09;12.30;99.90
41344;DHT22;27089;50.022;7.604;2024-03-02T13:28:38;12.30;99.90
41344;DHT22;27089;50.022;7.604;2024-03-02T13:31:05;12.60;99.90
41344;DHT22;27089;50.022;7.604;2024-03-02T13:33:33;13.00;99.90
41344;DHT22;27089;50.022;7.604;2024-03-02T13:36:00;12.70;99.90
41344;DHT22;27089;50.022;7.604;2024-03-02T13:38:28;12.40;99.90
41344;DHT22;27089;50.022;7.604;2024-03-02T13:40:57;11.90;99.90
41344;DHT22;27089;50.022;7.604;2024-03-02T13:43:26;11.90;99.90
41344;DHT22;27089;50.022;7.604;2024-03-02T13:45:57;11.80;99.90
41344;DHT22;27089;50.022;7.604;2024-03-02T13:48:24;11.80;99.90
41344;DHT22;27089;50.022;7.604;2024-03-02T13:50:52;11.70;99.90
41344;DHT22;27089;50.022;7.604;2024-03-02T13:53:19;11.60;99.90
41344;DHT22;27089;50.022;7.604;2024-03-02T13:55:46;11.50;99.90
41344;DHT22;27089;50.022;7.604;2024-03-02T13:58:14;11.60;99.90
41344;DHT22;27089;50.022;7.604;2024-03-02T14:00:41;11.60;99.90
41344;DHT22;27089;50.022;7.604;2024-03-02T14:03:11;11.40;99.90
41344;DHT22;27089;50.022;7.604;2024-03-02T14:05:38;11.50;99.90
41344;DHT22;27089;50.022;7.604;2024-03-02T14:08:05;11.70;99.90
41344;DHT22;27089;50.022;7.604;2024-03-02T14:10:32;11.70;99.90
41344;DHT22;27089;50.022;7.604;2024-03-02T14:13:00;11.70;99.90
41344;DHT22;27089;50.022;7.604;2024-03-02T14:15:29;11.50;99.90
41344;DHT22;27089;50.022;7.604;2024-03-02T14:17:57;11.30;99.90
41344;DHT22;27089;50.022;7.604;2024-03-02T14:20:24;11.30;99.90
41344;DHT22;27089;50.022;7.604;2024-03-02T14:22:51;11.40;99.90
41344;DHT22;27089;50.022;7.604;2024-03-02T14:25:18;11.50;99.90
41344;DHT22;27089;50.022;7.604;2024-03-02T14:27:45;11.40;99.90
41344;DHT22;27089;50.022;7.604;2024-03-02T14:30:13;11.40;99.90
41344;DHT22;27089;50.022;7.604;2024-03-02T14:32:41;11.40;99.90
41344;DHT22;27089;50.022;7.604;2024-03-02T14:35:08;11.50;99.90
41344;DHT22;27089;50.022;7.604;2024-03-02T14:37:37;11.50;99.90
41344;DHT22;27089;50.022;7.604;2024-03-02T14:40:06;11.30;99.90
41344;DHT22;27089;50.022;7.604;2024-03-02T14:42:35;11.30;99.90
41344;DHT22;27089;50.022;7.604;2024-03-02T14:45:02;11.40;99.90
41344;DHT22;27089;50.022;7.604;2024-03-02T14:47:32;11.50;99.90
41344;DHT22;27089;50.022;7.604;2024-03-02T14:50:00;11.50;99.90
41344;DHT22;27089;50.022;7.604;2024-03-02T14:52:30;11.60;99.90
41344;DHT22;27089;50.022;7.604;2024-03-02T14:54:57;11.60;99.90
41344;DHT22;27089;50.022;7.604;2024-03-02T14:57:24;11.60;99.90
41344;DHT22;27089;50.022;7.604;2024-03-02T14:59:51;11.60;99.90
41344;DHT22;27089;50.022;7.604;2024-03-02T15:02:20;11.70;99.90
41344;DHT22;27089;50.022;7.604;2024-03-02T15:04:47;11.60;99.90
41344;DHT22;27089;50.022;7.604;2024-03-02T15:07:15;11.60;99.90
41344;DHT22;27089;50.022;7.604;2024-03-02T15:09:42;11.60;99.90
41344;DHT22;27089;50.022;7.604;2024-03-02T15:12:10;11.60;99.90
41344;DHT22;27089;50.022;7.604;2024-03-02T15:14:38;11.50;99.90
41344;DHT22;27089;50.022;7.604;2024-03-02T15:17:12;11.50;99.90
41344;DHT22;27089;50.022;7.604;2024-03-02T15:19:41;11.50;99.90
41344;DHT22;27089;50.022;7.604;2024-03-02T15:22:08;11.50;99.90
41344;DHT22;27089;50.022;7.604;2024-03-02T15:24:37;11.60;99.90
41344;DHT22;27089;50.022;7.604;2024-03-02T15:27:05;11.60;99.90
41344;DHT22;27089;50.022;7.604;2024-03-02T15:29:33;11.50;99.90
41344;DHT22;27089;50.022;7.604;2024-03-02T15:32:01;11.50;99.90
41344;DHT22;27089;50.022;7.604;2024-03-02T15:34:30;11.50;99.90
41344;DHT22;27089;50.022;7.604;2024-03-02T15:36:58;11.50;99.90
41344;DHT22;27089;50.022;7.604;2024-03-02T15:39:25;11.50;99.90
41344;DHT22;27089;50.022;7.604;2024-03-02T15:41:53;11.50;99.90
41344;DHT22;27089;50.022;7.604;2024-03-02T15:44:20;11.50;99.90
41344;DHT22;27089;50.022;7.604;2024-03-02T15:46:48;11.60;99.90